sensor_id;sensor_type;location;lat;lon;timestamp;pressure;altitude;pressure_sealevel;temperature;humidity
74915;BME280;63475;45.140;-75.616;2024-02-28T00:01:57;99302.31;;;7.77;60.43
74915;BME280;63475;45.140;-75.616;2024-02-28T00:04:00;99280.63;;;7.72;60.50
74915;BME280;63475;45.140;-75.616;2024-02-28T00:06:02;99279.19;;;7.68;61.19
74915;BME280;63475;45.140;-75.616;2024-02-28T00:08:05;99279.19;;;7.68;61.21
74915;BME280;63475;45.140;-75.616;2024-02-28T00:10:08;99276.88;;;7.63;61.28
74915;BME280;63475;45.140;-75.616;2024-02-28T00:12:10;99269.88;;;7.62;61.39
74915;BME280;63475;45.140;-75.616;2024-02-28T00:14:13;99270.97;;;7.60;61.57
74915;BME280;63475;45.140;-75.616;2024-02-28T00:16:16;99272.66;;;7.61;61.76
74915;BME280;63475;45.140;-75.616;2024-02-28T00:18:18;99268.44;;;7.58;62.02
74915;BME280;63475;45.140;-75.616;2024-02-28T00:20:21;99265.19;;;7.55;61.73
74915;BME280;63475;45.140;-75.616;2024-02-28T00:22:26;99275.31;;;7.61;62.44
74915;BME280;63475;45.140;-75.616;2024-02-28T00:24:29;99261.31;;;7.59;62.48
74915;BME280;63475;45.140;-75.616;2024-02-28T00:26:32;99261.44;;;7.57;61.98
74915;BME280;63475;45.140;-75.616;2024-02-28T00:28:34;99265.66;;;7.60;62.22
74915;BME280;63475;45.140;-75.616;2024-02-28T00:30:37;99263.97;;;7.59;62.28
74915;BME280;63475;45.140;-75.616;2024-02-28T00:32:39;99263.72;;;7.62;62.55
74915;BME280;63475;45.140;-75.616;2024-02-28T00:34:42;99267.34;;;7.61;62.85
74915;BME280;63475;45.140;-75.616;2024-02-28T00:36:44;99268.81;;;7.65;62.70
74915;BME280;63475;45.140;-75.616;2024-02-28T00:38:56;99269.66;;;7.65;62.79
74915;BME280;63475;45.140;-75.616;2024-02-28T00:40:59;99271.22;;;7.68;63.41
74915;BME280;63475;45.140;-75.616;2024-02-28T00:43:02;99264.22;;;7.67;62.86
74915;BME280;63475;45.140;-75.616;2024-02-28T00:45:07;99269.41;;;7.68;62.79
74915;BME280;63475;45.140;-75.616;2024-02-28T00:47:10;99271.69;;;7.73;63.17
74915;BME280;63475;45.140;-75.616;2024-02-28T00:49:13;99261.31;;;7.70;62.87
74915;BME280;63475;45.140;-75.616;2024-02-28T00:51:15;99261.66;;;7.76;63.06
74915;BME280;63475;45.140;-75.616;2024-02-28T00:53:19;99264.19;;;7.78;62.70
74915;BME280;63475;45.140;-75.616;2024-02-28T00:55:22;99253.31;;;7.81;62.74
74915;BME280;63475;45.140;-75.616;2024-02-28T00:57:24;99262.25;;;7.80;63.16
74915;BME280;63475;45.140;-75.616;2024-02-28T00:59:27;99257.78;;;7.81;62.92
74915;BME280;63475;45.140;-75.616;2024-02-28T01:01:29;99261.03;;;7.84;62.57
74915;BME280;63475;45.140;-75.616;2024-02-28T01:03:32;99264.41;;;7.86;62.74
74915;BME280;63475;45.140;-75.616;2024-02-28T01:05:35;99260.78;;;7.87;62.81
74915;BME280;63475;45.140;-75.616;2024-02-28T01:07:37;99258.13;;;7.87;62.85
74915;BME280;63475;45.140;-75.616;2024-02-28T01:09:40;99259.22;;;7.85;62.99
74915;BME280;63475;45.140;-75.616;2024-02-28T01:11:42;99255.38;;;7.89;62.73
74915;BME280;63475;45.140;-75.616;2024-02-28T01:13:45;99256.44;;;7.86;62.88
74915;BME280;63475;45.140;-75.616;2024-02-28T01:15:47;99256.81;;;7.93;63.10
74915;BME280;63475;45.140;-75.616;2024-02-28T01:17:50;99254.28;;;7.91;62.90
74915;BME280;63475;45.140;-75.616;2024-02-28T01:19:53;99253.66;;;7.88;63.00
74915;BME280;63475;45.140;-75.616;2024-02-28T01:21:55;99260.78;;;7.98;62.23
74915;BME280;63475;45.140;-75.616;2024-02-28T01:23:58;99266.78;;;8.00;62.47
74915;BME280;63475;45.140;-75.616;2024-02-28T01:26:00;99265.56;;;8.04;62.91
74915;BME280;63475;45.140;-75.616;2024-02-28T01:28:06;99265.31;;;8.07;62.33
74915;BME280;63475;45.140;-75.616;2024-02-28T01:30:08;99255.66;;;8.06;62.64
74915;BME280;63475;45.140;-75.616;2024-02-28T01:32:11;99254.56;;;8.09;62.52
74915;BME280;63475;45.140;-75.616;2024-02-28T01:34:14;99256.00;;;8.13;62.60
74915;BME280;63475;45.140;-75.616;2024-02-28T01:36:16;99260.94;;;8.18;62.75
74915;BME280;63475;45.140;-75.616;2024-02-28T01:38:19;99265.00;;;8.22;62.48
74915;BME280;63475;45.140;-75.616;2024-02-28T01:40:21;99260.94;;;8.18;62.05
74915;BME280;63475;45.140;-75.616;2024-02-28T01:42:24;99255.94;;;8.24;62.38
74915;BME280;63475;45.140;-75.616;2024-02-28T01:44:26;99255.09;;;8.24;62.14
74915;BME280;63475;45.140;-75.616;2024-02-28T01:46:31;99258.47;;;8.26;61.91
74915;BME280;63475;45.140;-75.616;2024-02-28T01:48:34;99259.66;;;8.33;61.95
74915;BME280;63475;45.140;-75.616;2024-02-28T01:50:37;99257.72;;;8.35;61.77
74915;BME280;63475;45.140;-75.616;2024-02-28T01:52:42;99258.19;;;8.40;62.03
74915;BME280;63475;45.140;-75.616;2024-02-28T01:54:45;99259.88;;;8.41;62.02
74915;BME280;63475;45.140;-75.616;2024-02-28T01:56:48;99258.78;;;8.43;61.46
74915;BME280;63475;45.140;-75.616;2024-02-28T01:58:52;99276.00;;;8.49;61.82
74915;BME280;63475;45.140;-75.616;2024-02-28T02:00:56;99281.31;;;8.49;61.61
74915;BME280;63475;45.140;-75.616;2024-02-28T02:03:02;99285.53;;;8.52;61.23
74915;BME280;63475;45.140;-75.616;2024-02-28T02:05:05;99284.56;;;8.53;61.32
74915;BME280;63475;45.140;-75.616;2024-02-28T02:07:08;99280.81;;;8.55;61.28
74915;BME280;63475;45.140;-75.616;2024-02-28T02:09:11;99285.63;;;8.61;61.09
74915;BME280;63475;45.140;-75.616;2024-02-28T02:11:17;99286.47;;;8.62;61.16
74915;BME280;63475;45.140;-75.616;2024-02-28T02:13:22;99269.69;;;8.61;60.84
74915;BME280;63475;45.140;-75.616;2024-02-28T02:15:25;99270.53;;;8.62;60.95
74915;BME280;63475;45.140;-75.616;2024-02-28T02:17:28;99259.31;;;8.58;60.98
74915;BME280;63475;45.140;-75.616;2024-02-28T02:19:30;99273.06;;;8.63;61.11
74915;BME280;63475;45.140;-75.616;2024-02-28T02:21:50;99279.09;;;8.65;60.79
74915;BME280;63475;45.140;-75.616;2024-02-28T02:23:54;99264.38;;;8.61;60.68
74915;BME280;63475;45.140;-75.616;2024-02-28T02:25:57;99276.44;;;8.65;61.14
74915;BME280;63475;45.140;-75.616;2024-02-28T02:27:59;99273.50;;;8.68;60.81
74915;BME280;63475;45.140;-75.616;2024-02-28T02:30:02;99266.38;;;8.69;60.81
74915;BME280;63475;45.140;-75.616;2024-02-28T02:32:05;99267.94;;;8.71;60.99
74915;BME280;63475;45.140;-75.616;2024-02-28T02:34:08;99266.72;;;8.75;60.94
74915;BME280;63475;45.140;-75.616;2024-02-28T02:36:10;99268.16;;;8.68;61.04
74915;BME280;63475;45.140;-75.616;2024-02-28T02:38:13;99267.03;;;8.61;61.35
74915;BME280;63475;45.140;-75.616;2024-02-28T02:40:16;99278.94;;;8.67;61.04
74915;BME280;63475;45.140;-75.616;2024-02-28T02:42:18;99282.94;;;8.72;61.24
74915;BME280;63475;45.140;-75.616;2024-02-28T02:44:21;99269.69;;;8.61;61.44
74915;BME280;63475;45.140;-75.616;2024-02-28T02:46:24;99282.22;;;8.70;61.53
74915;BME280;63475;45.140;-75.616;2024-02-28T02:48:26;99270.06;;;8.57;61.93
74915;BME280;63475;45.140;-75.616;2024-02-28T02:50:29;99294.66;;;8.70;62.02
74915;BME280;63475;45.140;-75.616;2024-02-28T02:52:32;99298.03;;;8.72;61.86
74915;BME280;63475;45.140;-75.616;2024-02-28T02:54:34;99301.16;;;8.77;61.66
74915;BME280;63475;45.140;-75.616;2024-02-28T02:56:37;99309.47;;;8.84;61.40
74915;BME280;63475;45.140;-75.616;2024-02-28T02:58:39;99297.28;;;8.81;61.57
74915;BME280;63475;45.140;-75.616;2024-02-28T03:00:42;99294.63;;;8.81;61.92
74915;BME280;63475;45.140;-75.616;2024-02-28T03:02:44;99304.88;;;8.86;61.54
74915;BME280;63475;45.140;-75.616;2024-02-28T03:04:47;99292.41;;;8.86;61.72
74915;BME280;63475;45.140;-75.616;2024-02-28T03:06:49;99279.38;;;8.83;61.66
74915;BME280;63475;45.140;-75.616;2024-02-28T03:08:52;99286.13;;;8.87;61.77
74915;BME280;63475;45.140;-75.616;2024-02-28T03:10:55;99287.53;;;8.91;61.88
74915;BME280;63475;45.140;-75.616;2024-02-28T03:12:57;99281.06;;;8.84;61.38
74915;BME280;63475;45.140;-75.616;2024-02-28T03:15:00;99291.16;;;8.90;61.34
74915;BME280;63475;45.140;-75.616;2024-02-28T03:17:02;99290.31;;;8.90;61.58
74915;BME280;63475;45.140;-75.616;2024-02-28T03:19:07;99291.31;;;8.89;61.38
74915;BME280;63475;45.140;-75.616;2024-02-28T03:21:09;99284.19;;;8.89;61.34
74915;BME280;63475;45.140;-75.616;2024-02-28T03:23:12;99288.38;;;8.92;61.44
74915;BME280;63475;45.140;-75.616;2024-02-28T03:25:14;99285.00;;;8.90;61.71
74915;BME280;63475;45.140;-75.616;2024-02-28T03:27:17;99282.34;;;8.90;61.41
74915;BME280;63475;45.140;-75.616;2024-02-28T03:29:19;99290.31;;;8.90;61.53
74915;BME280;63475;45.140;-75.616;2024-02-28T03:31:22;99289.50;;;8.89;60.92
74915;BME280;63475;45.140;-75.616;2024-02-28T03:33:25;99292.28;;;8.88;61.12
74915;BME280;63475;45.140;-75.616;2024-02-28T03:35:27;99288.91;;;8.86;61.93
74915;BME280;63475;45.140;-75.616;2024-02-28T03:37:30;99275.81;;;8.73;61.55
74915;BME280;63475;45.140;-75.616;2024-02-28T03:39:33;99297.88;;;8.85;61.27
74915;BME280;63475;45.140;-75.616;2024-02-28T03:41:36;99300.66;;;8.83;61.45
74915;BME280;63475;45.140;-75.616;2024-02-28T03:43:38;99292.09;;;8.80;61.92
74915;BME280;63475;45.140;-75.616;2024-02-28T03:45:41;99283.53;;;8.76;62.16
74915;BME280;63475;45.140;-75.616;2024-02-28T03:47:44;99287.03;;;8.76;61.23
74915;BME280;63475;45.140;-75.616;2024-02-28T03:49:46;99284.50;;;8.75;61.64
74915;BME280;63475;45.140;-75.616;2024-02-28T03:51:48;99276.91;;;8.70;61.82
74915;BME280;63475;45.140;-75.616;2024-02-28T03:53:51;99271.59;;;8.70;61.83
74915;BME280;63475;45.140;-75.616;2024-02-28T03:55:54;99266.66;;;8.66;61.83
74915;BME280;63475;45.140;-75.616;2024-02-28T03:57:56;99259.78;;;8.63;61.98
74915;BME280;63475;45.140;-75.616;2024-02-28T04:00:01;99261.59;;;8.63;61.99
74915;BME280;63475;45.140;-75.616;2024-02-28T04:02:04;99270.53;;;8.62;61.83
74915;BME280;63475;45.140;-75.616;2024-02-28T04:04:07;99266.31;;;8.59;61.92
74915;BME280;63475;45.140;-75.616;2024-02-28T04:06:10;99272.72;;;8.57;62.05
74915;BME280;63475;45.140;-75.616;2024-02-28T04:08:13;99271.28;;;8.53;61.84
74915;BME280;63475;45.140;-75.616;2024-02-28T04:10:16;99271.53;;;8.50;62.07
74915;BME280;63475;45.140;-75.616;2024-02-28T04:12:19;99265.91;;;8.43;62.33
74915;BME280;63475;45.140;-75.616;2024-02-28T04:14:22;99271.78;;;8.47;61.94
74915;BME280;63475;45.140;-75.616;2024-02-28T04:16:25;99260.72;;;8.41;63.35
74915;BME280;63475;45.140;-75.616;2024-02-28T04:18:27;99256.50;;;8.39;63.76
74915;BME280;63475;45.140;-75.616;2024-02-28T04:20:30;99258.56;;;8.35;63.66
74915;BME280;63475;45.140;-75.616;2024-02-28T04:22:32;99257.84;;;8.33;63.11
74915;BME280;63475;45.140;-75.616;2024-02-28T04:24:35;99251.47;;;8.25;63.34
74915;BME280;63475;45.140;-75.616;2024-02-28T04:26:37;99255.69;;;8.27;63.94
74915;BME280;63475;45.140;-75.616;2024-02-28T04:28:42;99245.19;;;8.26;64.09
74915;BME280;63475;45.140;-75.616;2024-02-28T04:30:44;99256.78;;;8.25;64.18
74915;BME280;63475;45.140;-75.616;2024-02-28T04:32:47;99259.56;;;8.23;64.43
74915;BME280;63475;45.140;-75.616;2024-02-28T04:34:49;99256.59;;;8.17;64.27
74915;BME280;63475;45.140;-75.616;2024-02-28T04:36:52;99258.41;;;8.16;64.18
74915;BME280;63475;45.140;-75.616;2024-02-28T04:38:54;99246.22;;;8.14;64.80
74915;BME280;63475;45.140;-75.616;2024-02-28T04:40:57;99245.75;;;8.08;64.33
74915;BME280;63475;45.140;-75.616;2024-02-28T04:42:59;99244.06;;;8.07;64.42
74915;BME280;63475;45.140;-75.616;2024-02-28T04:45:02;99245.75;;;8.08;64.55
74915;BME280;63475;45.140;-75.616;2024-02-28T04:47:05;99247.69;;;8.06;65.03
74915;BME280;63475;45.140;-75.616;2024-02-28T04:49:07;99240.09;;;8.02;65.22
74915;BME280;63475;45.140;-75.616;2024-02-28T04:51:11;99227.06;;;7.99;64.98
74915;BME280;63475;45.140;-75.616;2024-02-28T04:53:17;99234.47;;;7.95;65.40
74915;BME280;63475;45.140;-75.616;2024-02-28T04:55:19;99237.50;;;7.91;65.39
74915;BME280;63475;45.140;-75.616;2024-02-28T04:57:22;99233.28;;;7.88;65.62
74915;BME280;63475;45.140;-75.616;2024-02-28T04:59:24;99241.50;;;7.85;66.37
74915;BME280;63475;45.140;-75.616;2024-02-28T05:01:27;99229.09;;;7.74;65.36
74915;BME280;63475;45.140;-75.616;2024-02-28T05:03:33;99228.72;;;7.79;66.36
74915;BME280;63475;45.140;-75.616;2024-02-28T05:05:35;99227.13;;;7.76;67.23
74915;BME280;63475;45.140;-75.616;2024-02-28T05:07:38;99224.75;;;7.73;66.51
74915;BME280;63475;45.140;-75.616;2024-02-28T05:09:40;99212.69;;;7.69;67.44
74915;BME280;63475;45.140;-75.616;2024-02-28T05:11:44;99222.47;;;7.69;67.68
74915;BME280;63475;45.140;-75.616;2024-02-28T05:13:47;99210.66;;;7.62;67.90
74915;BME280;63475;45.140;-75.616;2024-02-28T05:15:49;99217.28;;;7.67;67.70
74915;BME280;63475;45.140;-75.616;2024-02-28T05:17:52;99205.00;;;7.55;68.60
74915;BME280;63475;45.140;-75.616;2024-02-28T05:19:55;99205.34;;;7.62;69.96
74915;BME280;63475;45.140;-75.616;2024-02-28T05:21:59;99208.97;;;7.61;70.28
74915;BME280;63475;45.140;-75.616;2024-02-28T05:24:03;99199.56;;;7.57;70.38
74915;BME280;63475;45.140;-75.616;2024-02-28T05:26:06;99197.75;;;7.57;71.29
74915;BME280;63475;45.140;-75.616;2024-02-28T05:28:09;99209.22;;;7.58;70.69
74915;BME280;63475;45.140;-75.616;2024-02-28T05:30:11;99205.84;;;7.56;70.06
74915;BME280;63475;45.140;-75.616;2024-02-28T05:32:14;99194.50;;;7.54;69.88
74915;BME280;63475;45.140;-75.616;2024-02-28T05:34:20;99181.25;;;7.54;71.12
74915;BME280;63475;45.140;-75.616;2024-02-28T05:36:24;99187.53;;;7.53;71.01
74915;BME280;63475;45.140;-75.616;2024-02-28T05:38:26;99171.88;;;7.50;70.24
74915;BME280;63475;45.140;-75.616;2024-02-28T05:40:29;99165.84;;;7.48;70.85
74915;BME280;63475;45.140;-75.616;2024-02-28T05:42:31;99169.94;;;7.40;70.69
74915;BME280;63475;45.140;-75.616;2024-02-28T05:44:34;99167.28;;;7.40;70.20
74915;BME280;63475;45.140;-75.616;2024-02-28T05:46:37;99151.50;;;7.39;71.01
74915;BME280;63475;45.140;-75.616;2024-02-28T05:48:41;99137.63;;;7.35;70.85
74915;BME280;63475;45.140;-75.616;2024-02-28T05:50:44;99145.59;;;7.35;69.79
74915;BME280;63475;45.140;-75.616;2024-02-28T05:52:46;99150.91;;;7.35;71.20
74915;BME280;63475;45.140;-75.616;2024-02-28T05:54:49;99153.09;;;7.30;70.77
74915;BME280;63475;45.140;-75.616;2024-02-28T05:56:52;99146.97;;;7.30;71.82
74915;BME280;63475;45.140;-75.616;2024-02-28T05:58:54;99151.41;;;7.29;71.58
74915;BME280;63475;45.140;-75.616;2024-02-28T06:00:57;99148.16;;;7.26;71.04
74915;BME280;63475;45.140;-75.616;2024-02-28T06:03:00;99136.34;;;7.19;71.54
74915;BME280;63475;45.140;-75.616;2024-02-28T06:05:03;99146.59;;;7.23;72.09
74915;BME280;63475;45.140;-75.616;2024-02-28T06:07:06;99142.13;;;7.24;71.34
74915;BME280;63475;45.140;-75.616;2024-02-28T06:09:08;99134.66;;;7.18;71.48
74915;BME280;63475;45.140;-75.616;2024-02-28T06:11:11;99146.00;;;7.20;71.78
74915;BME280;63475;45.140;-75.616;2024-02-28T06:13:13;99134.78;;;7.16;71.50
74915;BME280;63475;45.140;-75.616;2024-02-28T06:15:16;99135.75;;;7.15;71.85
74915;BME280;63475;45.140;-75.616;2024-02-28T06:17:20;99117.84;;;7.07;72.03
74915;BME280;63475;45.140;-75.616;2024-02-28T06:19:24;99112.91;;;7.03;71.81
74915;BME280;63475;45.140;-75.616;2024-02-28T06:21:26;99115.31;;;7.06;71.95
74915;BME280;63475;45.140;-75.616;2024-02-28T06:23:29;99117.94;;;7.06;73.40
74915;BME280;63475;45.140;-75.616;2024-02-28T06:25:31;99114.47;;;7.05;73.42
74915;BME280;63475;45.140;-75.616;2024-02-28T06:27:36;99120.84;;;7.03;71.67
74915;BME280;63475;45.140;-75.616;2024-02-28T06:29:39;99121.22;;;6.98;73.66
74915;BME280;63475;45.140;-75.616;2024-02-28T06:31:42;99114.34;;;6.96;73.57
74915;BME280;63475;45.140;-75.616;2024-02-28T06:33:45;99126.50;;;6.98;74.49
74915;BME280;63475;45.140;-75.616;2024-02-28T06:35:48;99107.59;;;6.92;75.04
74915;BME280;63475;45.140;-75.616;2024-02-28T06:37:50;99106.88;;;6.90;74.64
74915;BME280;63475;45.140;-75.616;2024-02-28T06:39:53;99121.56;;;6.94;74.48
74915;BME280;63475;45.140;-75.616;2024-02-28T06:41:56;99120.84;;;6.92;73.86
74915;BME280;63475;45.140;-75.616;2024-02-28T06:43:59;99104.34;;;6.88;75.65
74915;BME280;63475;45.140;-75.616;2024-02-28T06:46:02;99108.56;;;6.91;74.91
74915;BME280;63475;45.140;-75.616;2024-02-28T06:48:06;99101.81;;;6.87;74.67
74915;BME280;63475;45.140;-75.616;2024-02-28T06:50:09;99119.28;;;6.89;75.51
74915;BME280;63475;45.140;-75.616;2024-02-28T06:52:12;99107.38;;;6.84;73.48
74915;BME280;63475;45.140;-75.616;2024-02-28T06:54:14;99118.09;;;6.82;73.52
74915;BME280;63475;45.140;-75.616;2024-02-28T06:56:17;99116.28;;;6.83;74.19
74915;BME280;63475;45.140;-75.616;2024-02-28T06:58:19;99117.13;;;6.83;74.87
74915;BME280;63475;45.140;-75.616;2024-02-28T07:00:22;99106.00;;;6.78;74.16
74915;BME280;63475;45.140;-75.616;2024-02-28T07:02:24;99110.34;;;6.79;74.28
74915;BME280;63475;45.140;-75.616;2024-02-28T07:04:27;99107.81;;;6.78;73.66
74915;BME280;63475;45.140;-75.616;2024-02-28T07:06:29;99103.50;;;6.77;73.22
74915;BME280;63475;45.140;-75.616;2024-02-28T07:08:32;99094.69;;;6.76;73.42
74915;BME280;63475;45.140;-75.616;2024-02-28T07:10:35;99085.41;;;6.70;72.93
74915;BME280;63475;45.140;-75.616;2024-02-28T07:12:39;99103.59;;;6.75;74.88
74915;BME280;63475;45.140;-75.616;2024-02-28T07:14:41;99088.06;;;6.70;75.35
74915;BME280;63475;45.140;-75.616;2024-02-28T07:16:44;99090.47;;;6.73;76.19
74915;BME280;63475;45.140;-75.616;2024-02-28T07:18:46;99085.41;;;6.70;74.95
74915;BME280;63475;45.140;-75.616;2024-02-28T07:20:49;99082.16;;;6.67;74.34
74915;BME280;63475;45.140;-75.616;2024-02-28T07:22:51;99088.06;;;6.70;74.23
74915;BME280;63475;45.140;-75.616;2024-02-28T07:24:54;99090.72;;;6.70;73.96
74915;BME280;63475;45.140;-75.616;2024-02-28T07:26:56;99090.72;;;6.70;74.44
74915;BME280;63475;45.140;-75.616;2024-02-28T07:28:59;99086.50;;;6.68;75.53
74915;BME280;63475;45.140;-75.616;2024-02-28T07:31:02;99078.66;;;6.66;76.51
74915;BME280;63475;45.140;-75.616;2024-02-28T07:33:05;99087.34;;;6.68;75.65
74915;BME280;63475;45.140;-75.616;2024-02-28T07:35:08;99085.88;;;6.64;75.80
74915;BME280;63475;45.140;-75.616;2024-02-28T07:37:11;99082.28;;;6.65;75.28
74915;BME280;63475;45.140;-75.616;2024-02-28T07:39:14;99080.34;;;6.67;75.89
74915;BME280;63475;45.140;-75.616;2024-02-28T07:41:16;99078.09;;;6.63;76.59
74915;BME280;63475;45.140;-75.616;2024-02-28T07:43:19;99072.91;;;6.61;76.53
74915;BME280;63475;45.140;-75.616;2024-02-28T07:45:22;99066.16;;;6.57;75.84
74915;BME280;63475;45.140;-75.616;2024-02-28T07:47:25;99070.97;;;6.63;77.90
74915;BME280;63475;45.140;-75.616;2024-02-28T07:49:27;99075.19;;;6.66;76.88
74915;BME280;63475;45.140;-75.616;2024-02-28T07:51:30;99058.09;;;6.59;77.14
74915;BME280;63475;45.140;-75.616;2024-02-28T07:53:32;99077.94;;;6.64;76.16
74915;BME280;63475;45.140;-75.616;2024-02-28T07:55:35;99064.69;;;6.64;75.68
74915;BME280;63475;45.140;-75.616;2024-02-28T07:57:37;99056.28;;;6.59;76.49
74915;BME280;63475;45.140;-75.616;2024-02-28T07:59:41;99056.06;;;6.62;76.44
74915;BME280;63475;45.140;-75.616;2024-02-28T08:01:43;99048.81;;;6.64;75.24
74915;BME280;63475;45.140;-75.616;2024-02-28T08:03:47;99040.84;;;6.64;76.78
74915;BME280;63475;45.140;-75.616;2024-02-28T08:05:49;99042.09;;;6.60;75.14
74915;BME280;63475;45.140;-75.616;2024-02-28T08:07:52;99050.59;;;6.64;74.71
74915;BME280;63475;45.140;-75.616;2024-02-28T08:09:54;99049.63;;;6.65;75.95
74915;BME280;63475;45.140;-75.616;2024-02-28T08:11:57;99045.47;;;6.62;75.70
74915;BME280;63475;45.140;-75.616;2024-02-28T08:14:01;99052.41;;;6.63;77.64
74915;BME280;63475;45.140;-75.616;2024-02-28T08:16:03;99054.09;;;6.64;76.80
74915;BME280;63475;45.140;-75.616;2024-02-28T08:18:06;99047.25;;;6.62;76.45
74915;BME280;63475;45.140;-75.616;2024-02-28T08:20:09;99042.31;;;6.57;76.52
74915;BME280;63475;45.140;-75.616;2024-02-28T08:22:12;99052.41;;;6.63;76.38
74915;BME280;63475;45.140;-75.616;2024-02-28T08:24:14;99045.56;;;6.61;76.66
74915;BME280;63475;45.140;-75.616;2024-02-28T08:26:17;99034.03;;;6.62;77.02
74915;BME280;63475;45.140;-75.616;2024-02-28T08:28:19;99031.22;;;6.63;76.98
74915;BME280;63475;45.140;-75.616;2024-02-28T08:30:22;99014.50;;;6.63;77.86
74915;BME280;63475;45.140;-75.616;2024-02-28T08:32:25;99012.81;;;6.62;77.74
74915;BME280;63475;45.140;-75.616;2024-02-28T08:34:30;99005.00;;;6.60;77.33
74915;BME280;63475;45.140;-75.616;2024-02-28T08:36:32;99001.94;;;6.65;78.57
74915;BME280;63475;45.140;-75.616;2024-02-28T08:38:35;98998.63;;;6.63;76.50
74915;BME280;63475;45.140;-75.616;2024-02-28T08:40:41;98996.31;;;6.58;77.15
74915;BME280;63475;45.140;-75.616;2024-02-28T08:42:43;99009.78;;;6.66;78.08
74915;BME280;63475;45.140;-75.616;2024-02-28T08:44:46;99009.06;;;6.64;77.58
74915;BME280;63475;45.140;-75.616;2024-02-28T08:46:50;99006.28;;;6.66;77.39
74915;BME280;63475;45.140;-75.616;2024-02-28T08:48:52;99007.84;;;6.68;77.69
74915;BME280;63475;45.140;-75.616;2024-02-28T08:50:55;99006.88;;;6.69;78.35
74915;BME280;63475;45.140;-75.616;2024-02-28T08:52:57;98999.78;;;6.70;78.37
74915;BME280;63475;45.140;-75.616;2024-02-28T08:55:00;98989.56;;;6.65;78.19
74915;BME280;63475;45.140;-75.616;2024-02-28T08:57:02;98994.47;;;6.70;76.67
74915;BME280;63475;45.140;-75.616;2024-02-28T08:59:06;98976.91;;;6.69;78.14
74915;BME280;63475;45.140;-75.616;2024-02-28T09:01:09;98969.91;;;6.68;76.98
74915;BME280;63475;45.140;-75.616;2024-02-28T09:03:11;98961.13;;;6.67;76.93
74915;BME280;63475;45.140;-75.616;2024-02-28T09:05:14;98961.84;;;6.69;76.96
74915;BME280;63475;45.140;-75.616;2024-02-28T09:07:17;98973.16;;;6.71;77.30
74915;BME280;63475;45.140;-75.616;2024-02-28T09:09:21;98961.72;;;6.71;76.81
74915;BME280;63475;45.140;-75.616;2024-02-28T09:11:24;98972.19;;;6.72;77.10
74915;BME280;63475;45.140;-75.616;2024-02-28T09:13:27;98962.69;;;6.70;77.53
74915;BME280;63475;45.140;-75.616;2024-02-28T09:15:29;98961.72;;;6.71;77.34
74915;BME280;63475;45.140;-75.616;2024-02-28T09:17:33;98964.13;;;6.74;76.42
74915;BME280;63475;45.140;-75.616;2024-02-28T09:19:35;98953.53;;;6.74;78.33
74915;BME280;63475;45.140;-75.616;2024-02-28T09:21:38;98949.91;;;6.75;78.38
74915;BME280;63475;45.140;-75.616;2024-02-28T09:23:40;98949.06;;;6.74;77.13
74915;BME280;63475;45.140;-75.616;2024-02-28T09:25:43;98943.78;;;6.74;77.77
74915;BME280;63475;45.140;-75.616;2024-02-28T09:27:45;98935.94;;;6.73;77.46
74915;BME280;63475;45.140;-75.616;2024-02-28T09:29:48;98930.53;;;6.74;77.17
74915;BME280;63475;45.140;-75.616;2024-02-28T09:31:51;98925.22;;;6.74;76.49
74915;BME280;63475;45.140;-75.616;2024-02-28T09:33:54;98918.97;;;6.76;77.37
74915;BME280;63475;45.140;-75.616;2024-02-28T09:35:56;98914.63;;;6.74;78.37
74915;BME280;63475;45.140;-75.616;2024-02-28T09:38:02;98901.25;;;6.76;78.14
74915;BME280;63475;45.140;-75.616;2024-02-28T09:40:04;98898.97;;;6.71;79.12
74915;BME280;63475;45.140;-75.616;2024-02-28T09:42:10;98909.09;;;6.78;78.71
74915;BME280;63475;45.140;-75.616;2024-02-28T09:44:14;98902.81;;;6.79;78.46
74915;BME280;63475;45.140;-75.616;2024-02-28T09:46:21;98904.50;;;6.80;77.79
74915;BME280;63475;45.140;-75.616;2024-02-28T09:48:23;98894.88;;;6.79;78.56
74915;BME280;63475;45.140;-75.616;2024-02-28T09:50:30;98895.00;;;6.77;78.38
74915;BME280;63475;45.140;-75.616;2024-02-28T09:52:33;98896.78;;;6.77;79.08
74915;BME280;63475;45.140;-75.616;2024-02-28T09:54:35;98894.16;;;6.77;77.44
74915;BME280;63475;45.140;-75.616;2024-02-28T09:56:38;98897.50;;;6.79;78.48
74915;BME280;63475;45.140;-75.616;2024-02-28T09:58:41;98906.19;;;6.81;78.28
74915;BME280;63475;45.140;-75.616;2024-02-28T10:00:45;98905.97;;;6.84;77.56
74915;BME280;63475;45.140;-75.616;2024-02-28T10:02:49;98911.25;;;6.84;78.03
74915;BME280;63475;45.140;-75.616;2024-02-28T10:04:53;98920.91;;;6.85;78.37
74915;BME280;63475;45.140;-75.616;2024-02-28T10:06:56;98918.38;;;6.83;77.47
74915;BME280;63475;45.140;-75.616;2024-02-28T10:08:59;98909.59;;;6.83;78.86
74915;BME280;63475;45.140;-75.616;2024-02-28T10:11:01;98918.25;;;6.85;78.02
74915;BME280;63475;45.140;-75.616;2024-02-28T10:13:04;98919.22;;;6.84;77.78
74915;BME280;63475;45.140;-75.616;2024-02-28T10:15:07;98918.94;;;6.87;77.90
74915;BME280;63475;45.140;-75.616;2024-02-28T10:17:11;98907.66;;;6.85;78.45
74915;BME280;63475;45.140;-75.616;2024-02-28T10:19:14;98910.97;;;6.87;78.44
74915;BME280;63475;45.140;-75.616;2024-02-28T10:21:16;98902.91;;;6.88;77.82
74915;BME280;63475;45.140;-75.616;2024-02-28T10:23:19;98902.19;;;6.86;77.78
74915;BME280;63475;45.140;-75.616;2024-02-28T10:25:22;98909.03;;;6.89;78.70
74915;BME280;63475;45.140;-75.616;2024-02-28T10:27:26;98890.50;;;6.89;78.71
74915;BME280;63475;45.140;-75.616;2024-02-28T10:29:28;98889.53;;;6.90;79.31
74915;BME280;63475;45.140;-75.616;2024-02-28T10:31:32;98874.88;;;6.86;79.42
74915;BME280;63475;45.140;-75.616;2024-02-28T10:33:35;98883.25;;;6.91;79.43
74915;BME280;63475;45.140;-75.616;2024-02-28T10:35:42;98877.13;;;6.90;79.31
74915;BME280;63475;45.140;-75.616;2024-02-28T10:37:45;98868.19;;;6.91;79.59
74915;BME280;63475;45.140;-75.616;2024-02-28T10:39:49;98854.94;;;6.91;79.88
74915;BME280;63475;45.140;-75.616;2024-02-28T10:41:55;98853.97;;;6.92;79.54
74915;BME280;63475;45.140;-75.616;2024-02-28T10:44:00;98846.16;;;6.91;79.11